sensor_id;sensor_type;location;lat;lon;timestamp;pressure;altitude;pressure_sealevel;temperature;humidity
81833;BME280;71270;52.148;4.500;2023-10-13T00:01:20;101198.06;;;16.88;88.60
81833;BME280;71270;52.148;4.500;2023-10-13T00:03:45;101193.00;;;16.91;88.76
81833;BME280;71270;52.148;4.500;2023-10-13T00:06:11;101189.34;;;16.98;87.72
81833;BME280;71270;52.148;4.500;2023-10-13T00:08:36;101188.88;;;17.01;88.14
81833;BME280;71270;52.148;4.500;2023-10-13T00:11:02;101200.19;;;16.86;88.55
81833;BME280;71270;52.148;4.500;2023-10-13T00:13:28;101197.94;;;16.94;88.76
81833;BME280;71270;52.148;4.500;2023-10-13T00:15:57;101184.75;;;16.98;88.58
81833;BME280;71270;52.148;4.500;2023-10-13T00:18:27;101179.25;;;16.93;88.67
81833;BME280;71270;52.148;4.500;2023-10-13T00:20:53;101175.47;;;16.94;89.00
81833;BME280;71270;52.148;4.500;2023-10-13T00:23:22;101172.78;;;16.94;89.04
81833;BME280;71270;52.148;4.500;2023-10-13T00:25:51;101180.34;;;16.80;89.74
81833;BME280;71270;52.148;4.500;2023-10-13T00:28:23;101171.75;;;16.72;89.82
81833;BME280;71270;52.148;4.500;2023-10-13T00:30:51;101178.34;;;16.76;89.82
81833;BME280;71270;52.148;4.500;2023-10-13T00:33:18;101162.50;;;16.67;89.58
81833;BME280;71270;52.148;4.500;2023-10-13T00:35:49;101169.06;;;16.60;90.03
81833;BME280;71270;52.148;4.500;2023-10-13T00:38:16;101171.06;;;16.64;89.48
81833;BME280;71270;52.148;4.500;2023-10-13T00:40:44;101166.47;;;16.77;89.42
81833;BME280;71270;52.148;4.500;2023-10-13T00:43:17;101155.66;;;16.77;88.87
81833;BME280;71270;52.148;4.500;2023-10-13T00:46:03;101111.97;;;16.56;88.49
81833;BME280;71270;52.148;4.500;2023-10-13T00:48:31;101148.97;;;16.79;88.90
81833;BME280;71270;52.148;4.500;2023-10-13T00:51:06;101145.06;;;16.87;88.99
81833;BME280;71270;52.148;4.500;2023-10-13T00:53:36;101139.22;;;16.78;89.40
81833;BME280;71270;52.148;4.500;2023-10-13T00:56:10;101147.69;;;16.58;90.41
81833;BME280;71270;52.148;4.500;2023-10-13T00:58:46;101112.47;;;16.53;90.40
81833;BME280;71270;52.148;4.500;2023-10-13T01:01:12;101121.03;;;16.62;90.39
81833;BME280;71270;52.148;4.500;2023-10-13T01:03:53;101120.28;;;16.66;90.67
81833;BME280;71270;52.148;4.500;2023-10-13T01:06:21;101114.31;;;16.64;90.58
81833;BME280;71270;52.148;4.500;2023-10-13T01:09:00;101115.88;;;16.60;91.00
81833;BME280;71270;52.148;4.500;2023-10-13T01:11:25;101085.13;;;16.38;90.95
81833;BME280;71270;52.148;4.500;2023-10-13T01:13:55;101110.81;;;16.64;90.75
81833;BME280;71270;52.148;4.500;2023-10-13T01:16:22;101111.06;;;16.51;90.95
81833;BME280;71270;52.148;4.500;2023-10-13T01:18:49;101100.97;;;16.46;91.52
81833;BME280;71270;52.148;4.500;2023-10-13T01:21:16;101108.72;;;16.54;91.13
81833;BME280;71270;52.148;4.500;2023-10-13T01:23:44;101101.09;;;16.51;91.38
81833;BME280;71270;52.148;4.500;2023-10-13T01:26:11;101090.00;;;16.64;90.52
81833;BME280;71270;52.148;4.500;2023-10-13T01:28:38;101088.97;;;16.54;90.61
81833;BME280;71270;52.148;4.500;2023-10-13T01:31:12;101072.44;;;16.38;90.45
81833;BME280;71270;52.148;4.500;2023-10-13T01:33:38;101078.88;;;16.49;90.42
81833;BME280;71270;52.148;4.500;2023-10-13T01:36:04;101087.53;;;16.63;90.26
81833;BME280;71270;52.148;4.500;2023-10-13T01:38:34;101063.06;;;16.41;90.42
81833;BME280;71270;52.148;4.500;2023-10-13T01:41:05;101070.97;;;16.59;90.58
81833;BME280;71270;52.148;4.500;2023-10-13T01:43:30;101070.50;;;16.62;90.39
81833;BME280;71270;52.148;4.500;2023-10-13T01:45:55;101071.97;;;16.53;90.35
81833;BME280;71270;52.148;4.500;2023-10-13T01:48:21;101069.53;;;16.68;90.04
81833;BME280;71270;52.148;4.500;2023-10-13T01:50:46;101038.81;;;16.46;89.76
81833;BME280;71270;52.148;4.500;2023-10-13T01:53:13;101056.75;;;16.64;90.30
81833;BME280;71270;52.148;4.500;2023-10-13T01:55:42;101056.16;;;16.62;90.54
81833;BME280;71270;52.148;4.500;2023-10-13T01:58:10;101054.41;;;16.56;90.43
81833;BME280;71270;52.148;4.500;2023-10-13T02:00:40;101029.97;;;16.34;90.66
81833;BME280;71270;52.148;4.500;2023-10-13T02:03:10;101050.81;;;16.50;90.58
81833;BME280;71270;52.148;4.500;2023-10-13T02:05:43;101041.38;;;16.64;90.35
81833;BME280;71270;52.148;4.500;2023-10-13T02:08:13;101038.34;;;16.49;90.73
81833;BME280;71270;52.148;4.500;2023-10-13T02:10:43;101023.94;;;16.43;90.37
81833;BME280;71270;52.148;4.500;2023-10-13T02:13:14;101030.97;;;16.44;90.79
81833;BME280;71270;52.148;4.500;2023-10-13T02:15:46;100984.22;;;16.15;90.84
81833;BME280;71270;52.148;4.500;2023-10-13T02:18:16;101005.31;;;16.30;90.96
81833;BME280;71270;52.148;4.500;2023-10-13T02:21:07;100984.56;;;16.19;90.88
81833;BME280;71270;52.148;4.500;2023-10-13T02:23:39;101014.91;;;16.38;91.03
81833;BME280;71270;52.148;4.500;2023-10-13T02:26:10;101005.94;;;16.49;90.53
81833;BME280;71270;52.148;4.500;2023-10-13T02:28:38;101010.56;;;16.37;90.93
81833;BME280;71270;52.148;4.500;2023-10-13T02:31:04;101003.97;;;16.44;91.12
81833;BME280;71270;52.148;4.500;2023-10-13T02:33:30;100993.09;;;16.28;91.89
81833;BME280;71270;52.148;4.500;2023-10-13T02:35:56;100984.28;;;16.32;91.53
81833;BME280;71270;52.148;4.500;2023-10-13T02:38:22;100980.84;;;16.37;91.07
81833;BME280;71270;52.148;4.500;2023-10-13T02:40:57;100975.06;;;16.16;92.07
81833;BME280;71270;52.148;4.500;2023-10-13T02:43:31;100963.44;;;16.16;91.83
81833;BME280;71270;52.148;4.500;2023-10-13T02:45:58;100962.34;;;16.29;91.75
81833;BME280;71270;52.148;4.500;2023-10-13T02:48:25;100957.69;;;16.41;91.43
81833;BME280;71270;52.148;4.500;2023-10-13T02:50:57;100947.03;;;16.34;91.64
81833;BME280;71270;52.148;4.500;2023-10-13T02:53:22;100946.03;;;16.23;92.40
81833;BME280;71270;52.148;4.500;2023-10-13T02:55:52;100932.25;;;16.08;92.30
81833;BME280;71270;52.148;4.500;2023-10-13T02:58:18;100917.09;;;16.07;92.24
81833;BME280;71270;52.148;4.500;2023-10-13T03:00:43;100882.31;;;15.94;93.23
81833;BME280;71270;52.148;4.500;2023-10-13T03:03:09;100912.81;;;16.23;93.01
81833;BME280;71270;52.148;4.500;2023-10-13T03:05:35;100899.94;;;16.13;92.57
81833;BME280;71270;52.148;4.500;2023-10-13T03:08:04;100884.22;;;16.10;92.34
81833;BME280;71270;52.148;4.500;2023-10-13T03:10:30;100898.56;;;16.28;92.36
81833;BME280;71270;52.148;4.500;2023-10-13T03:12:55;100875.28;;;16.10;92.42
81833;BME280;71270;52.148;4.500;2023-10-13T03:15:21;100889.13;;;16.13;92.29
81833;BME280;71270;52.148;4.500;2023-10-13T03:17:54;100878.34;;;16.13;92.62
81833;BME280;71270;52.148;4.500;2023-10-13T03:20:20;100846.19;;;15.83;92.56
81833;BME280;71270;52.148;4.500;2023-10-13T03:22:58;100861.03;;;15.97;93.35
81833;BME280;71270;52.148;4.500;2023-10-13T03:25:24;100855.78;;;15.91;93.76
81833;BME280;71270;52.148;4.500;2023-10-13T03:28:07;100849.50;;;16.02;93.56
81833;BME280;71270;52.148;4.500;2023-10-13T03:30:36;100832.50;;;16.02;93.67
81833;BME280;71270;52.148;4.500;2023-10-13T03:33:08;100833.59;;;15.89;93.79
81833;BME280;71270;52.148;4.500;2023-10-13T03:35:37;100782.66;;;15.64;93.86
81833;BME280;71270;52.148;4.500;2023-10-13T03:38:04;100824.56;;;15.95;93.88
81833;BME280;71270;52.148;4.500;2023-10-13T03:40:36;100816.13;;;15.91;94.94
81833;BME280;71270;52.148;4.500;2023-10-13T03:43:03;100788.41;;;15.67;95.71
81833;BME280;71270;52.148;4.500;2023-10-13T03:45:41;100778.47;;;15.56;98.74
81833;BME280;71270;52.148;4.500;2023-10-13T03:48:12;100803.91;;;15.89;100.00
81833;BME280;71270;52.148;4.500;2023-10-13T03:50:50;100774.91;;;15.67;100.00
81833;BME280;71270;52.148;4.500;2023-10-13T03:53:35;100806.69;;;15.77;98.70
81833;BME280;71270;52.148;4.500;2023-10-13T03:56:06;100785.50;;;15.69;98.36
81833;BME280;71270;52.148;4.500;2023-10-13T03:58:38;100794.41;;;15.69;100.00
81833;BME280;71270;52.148;4.500;2023-10-13T04:01:04;100789.22;;;15.68;100.00
81833;BME280;71270;52.148;4.500;2023-10-13T04:03:31;100765.66;;;15.63;100.00
81833;BME280;71270;52.148;4.500;2023-10-13T04:06:01;100764.31;;;15.49;100.00
81833;BME280;71270;52.148;4.500;2023-10-13T04:08:33;100782.41;;;15.65;100.00
81833;BME280;71270;52.148;4.500;2023-10-13T04:11:07;100775.63;;;15.63;100.00
81833;BME280;71270;52.148;4.500;2023-10-13T04:13:51;100752.88;;;15.70;100.00
81833;BME280;71270;52.148;4.500;2023-10-13T04:16:35;100749.00;;;15.55;100.00
81833;BME280;71270;52.148;4.500;2023-10-13T04:19:02;100757.91;;;15.67;100.00
81833;BME280;71270;52.148;4.500;2023-10-13T04:21:27;100753.72;;;15.59;100.00
81833;BME280;71270;52.148;4.500;2023-10-13T04:24:12;100756.56;;;15.81;100.00
81833;BME280;71270;52.148;4.500;2023-10-13T04:26:50;100751.91;;;15.77;100.00
81833;BME280;71270;52.148;4.500;2023-10-13T04:29:34;100742.25;;;15.81;100.00
81833;BME280;71270;52.148;4.500;2023-10-13T04:32:18;100730.25;;;15.88;100.00
81833;BME280;71270;52.148;4.500;2023-10-13T04:35:04;100727.13;;;15.96;100.00
81833;BME280;71270;52.148;4.500;2023-10-13T04:37:39;100717.41;;;16.12;100.00
81833;BME280;71270;52.148;4.500;2023-10-13T04:40:18;100714.28;;;16.20;100.00
81833;BME280;71270;52.148;4.500;2023-10-13T04:42:44;100713.63;;;16.30;100.00
81833;BME280;71270;52.148;4.500;2023-10-13T04:45:21;100723.19;;;16.38;100.00
81833;BME280;71270;52.148;4.500;2023-10-13T04:47:56;100701.69;;;16.43;100.00
81833;BME280;71270;52.148;4.500;2023-10-13T04:50:23;100699.03;;;16.48;100.00
81833;BME280;71270;52.148;4.500;2023-10-13T04:52:59;100714.25;;;16.54;100.00
81833;BME280;71270;52.148;4.500;2023-10-13T04:55:28;100711.06;;;16.57;100.00
81833;BME280;71270;52.148;4.500;2023-10-13T04:58:24;100715.97;;;16.60;100.00
81833;BME280;71270;52.148;4.500;2023-10-13T05:00:59;100714.31;;;16.59;100.00
81833;BME280;71270;52.148;4.500;2023-10-13T05:03:51;100696.75;;;16.57;97.27
81833;BME280;71270;52.148;4.500;2023-10-13T05:06:34;100711.75;;;16.69;98.73
81833;BME280;71270;52.148;4.500;2023-10-13T05:09:09;100699.06;;;16.70;94.55
81833;BME280;71270;52.148;4.500;2023-10-13T05:11:52;100682.03;;;16.69;93.87
81833;BME280;71270;52.148;4.500;2023-10-13T05:14:36;100682.03;;;16.69;93.52
81833;BME280;71270;52.148;4.500;2023-10-13T05:17:20;100667.97;;;16.67;93.59
81833;BME280;71270;52.148;4.500;2023-10-13T05:20:05;100681.72;;;16.66;91.78
81833;BME280;71270;52.148;4.500;2023-10-13T05:22:49;100669.44;;;16.75;92.80
81833;BME280;71270;52.148;4.500;2023-10-13T05:25:37;100676.78;;;16.80;91.58
81833;BME280;71270;52.148;4.500;2023-10-13T05:28:21;100663.34;;;16.85;90.90
81833;BME280;71270;52.148;4.500;2023-10-13T05:31:06;100668.69;;;16.80;90.25
81833;BME280;71270;52.148;4.500;2023-10-13T05:33:50;100651.88;;;16.78;89.88
81833;BME280;71270;52.148;4.500;2023-10-13T05:36:34;100635.78;;;16.88;88.83
81833;BME280;71270;52.148;4.500;2023-10-13T05:39:18;100629.06;;;16.90;87.94
81833;BME280;71270;52.148;4.500;2023-10-13T05:42:03;100626.88;;;16.87;88.42
81833;BME280;71270;52.148;4.500;2023-10-13T05:44:47;100636.88;;;16.87;87.56
81833;BME280;71270;52.148;4.500;2023-10-13T05:47:24;100629.03;;;16.85;86.46
81833;BME280;71270;52.148;4.500;2023-10-13T05:50:12;100633.72;;;16.95;86.70
81833;BME280;71270;52.148;4.500;2023-10-13T05:52:46;100620.50;;;16.99;86.32
81833;BME280;71270;52.148;4.500;2023-10-13T05:55:27;100617.38;;;17.07;85.52
81833;BME280;71270;52.148;4.500;2023-10-13T05:58:11;100601.34;;;17.00;84.92
81833;BME280;71270;52.148;4.500;2023-10-13T06:00:55;100604.25;;;16.72;84.89
81833;BME280;71270;52.148;4.500;2023-10-13T06:03:39;100596.13;;;16.72;85.48
81833;BME280;71270;52.148;4.500;2023-10-13T06:06:23;100593.97;;;16.74;86.02
81833;BME280;71270;52.148;4.500;2023-10-13T06:09:07;100601.06;;;16.75;86.01
81833;BME280;71270;52.148;4.500;2023-10-13T06:11:51;100588.91;;;16.77;86.58
81833;BME280;71270;52.148;4.500;2023-10-13T06:14:35;100582.16;;;16.75;86.18
81833;BME280;71270;52.148;4.500;2023-10-13T06:17:19;100566.28;;;16.83;85.90
81833;BME280;71270;52.148;4.500;2023-10-13T06:20:04;100566.56;;;16.82;86.12
81833;BME280;71270;52.148;4.500;2023-10-13T06:22:48;100579.09;;;16.93;86.54
81833;BME280;71270;52.148;4.500;2023-10-13T06:25:32;100568.22;;;16.88;86.11
81833;BME280;71270;52.148;4.500;2023-10-13T06:28:16;100556.41;;;16.94;86.34
81833;BME280;71270;52.148;4.500;2023-10-13T06:31:00;100566.13;;;16.95;86.17
81833;BME280;71270;52.148;4.500;2023-10-13T06:33:31;100543.44;;;16.96;86.68
81833;BME280;71270;52.148;4.500;2023-10-13T06:35:59;100557.56;;;17.03;86.45
81833;BME280;71270;52.148;4.500;2023-10-13T06:38:24;100551.56;;;16.96;87.34
81833;BME280;71270;52.148;4.500;2023-10-13T06:40:52;100553.03;;;17.09;87.47
81833;BME280;71270;52.148;4.500;2023-10-13T06:43:17;100555.47;;;17.10;87.97
81833;BME280;71270;52.148;4.500;2023-10-13T06:45:47;100553.31;;;17.12;88.17
81833;BME280;71270;52.148;4.500;2023-10-13T06:48:23;100547.09;;;17.12;88.59
81833;BME280;71270;52.148;4.500;2023-10-13T06:50:49;100552.38;;;17.24;88.56
81833;BME280;71270;52.148;4.500;2023-10-13T06:53:14;100553.47;;;17.28;88.53
81833;BME280;71270;52.148;4.500;2023-10-13T06:55:41;100562.91;;;17.25;88.93
81833;BME280;71270;52.148;4.500;2023-10-13T06:58:12;100538.31;;;17.27;89.20
81833;BME280;71270;52.148;4.500;2023-10-13T07:00:39;100531.03;;;17.27;89.28
81833;BME280;71270;52.148;4.500;2023-10-13T07:03:06;100542.75;;;17.38;89.03
81833;BME280;71270;52.148;4.500;2023-10-13T07:05:38;100540.50;;;17.30;89.28
81833;BME280;71270;52.148;4.500;2023-10-13T07:08:08;100534.28;;;17.29;89.75
81833;BME280;71270;52.148;4.500;2023-10-13T07:10:34;100537.25;;;17.28;89.51
81833;BME280;71270;52.148;4.500;2023-10-13T07:13:13;100525.63;;;17.27;89.84
81833;BME280;71270;52.148;4.500;2023-10-13T07:15:42;100513.44;;;17.30;89.50
81833;BME280;71270;52.148;4.500;2023-10-13T07:18:19;100501.31;;;17.32;89.92
81833;BME280;71270;52.148;4.500;2023-10-13T07:20:48;100502.69;;;17.35;89.58
81833;BME280;71270;52.148;4.500;2023-10-13T07:23:14;100496.19;;;17.36;89.23
81833;BME280;71270;52.148;4.500;2023-10-13T07:25:50;100488.13;;;17.41;89.25
81833;BME280;71270;52.148;4.500;2023-10-13T07:28:16;100495.19;;;17.47;88.61
81833;BME280;71270;52.148;4.500;2023-10-13T07:30:41;100491.97;;;17.50;87.98
81833;BME280;71270;52.148;4.500;2023-10-13T07:33:19;100496.34;;;17.61;87.77
81833;BME280;71270;52.148;4.500;2023-10-13T07:36:08;100499.34;;;17.65;87.46
81833;BME280;71270;52.148;4.500;2023-10-13T07:38:56;100492.09;;;17.71;86.46
81833;BME280;71270;52.148;4.500;2023-10-13T07:41:45;100484.53;;;17.73;86.49
81833;BME280;71270;52.148;4.500;2023-10-13T07:44:16;100484.59;;;17.78;85.60
81833;BME280;71270;52.148;4.500;2023-10-13T07:46:42;100485.97;;;17.85;84.96
81833;BME280;71270;52.148;4.500;2023-10-13T07:49:11;100484.66;;;17.93;84.30
81833;BME280;71270;52.148;4.500;2023-10-13T07:51:37;100477.38;;;17.99;83.55
81833;BME280;71270;52.148;4.500;2023-10-13T07:54:14;100482.28;;;18.02;83.29
81833;BME280;71270;52.148;4.500;2023-10-13T07:56:47;100475.81;;;18.08;83.29
81833;BME280;71270;52.148;4.500;2023-10-13T07:59:12;100475.25;;;18.11;82.92
81833;BME280;71270;52.148;4.500;2023-10-13T08:01:40;100489.63;;;18.11;83.27
81833;BME280;71270;52.148;4.500;2023-10-13T08:04:08;100489.63;;;18.17;82.36
81833;BME280;71270;52.148;4.500;2023-10-13T08:06:40;100458.47;;;18.14;83.13
81833;BME280;71270;52.148;4.500;2023-10-13T08:09:07;100451.47;;;18.18;82.84
81833;BME280;71270;52.148;4.500;2023-10-13T08:11:52;100468.81;;;18.27;82.14
81833;BME280;71270;52.148;4.500;2023-10-13T08:14:19;100470.44;;;18.28;82.64
81833;BME280;71270;52.148;4.500;2023-10-13T08:16:47;100468.84;;;18.32;81.41
81833;BME280;71270;52.148;4.500;2023-10-13T08:19:22;100461.00;;;18.36;80.92
81833;BME280;71270;52.148;4.500;2023-10-13T08:22:01;100433.34;;;18.34;81.68
81833;BME280;71270;52.148;4.500;2023-10-13T08:24:46;100443.91;;;18.30;81.35
81833;BME280;71270;52.148;4.500;2023-10-13T08:27:13;100434.97;;;18.30;80.89
81833;BME280;71270;52.148;4.500;2023-10-13T08:29:42;100441.72;;;18.27;82.39
81833;BME280;71270;52.148;4.500;2023-10-13T08:32:27;100432.78;;;18.22;81.52
81833;BME280;71270;52.148;4.500;2023-10-13T08:34:59;100423.28;;;18.24;81.72
81833;BME280;71270;52.148;4.500;2023-10-13T08:37:30;100423.53;;;18.18;81.04
81833;BME280;71270;52.148;4.500;2023-10-13T08:40:16;100450.66;;;18.28;81.25
81833;BME280;71270;52.148;4.500;2023-10-13T08:43:02;100435.50;;;18.27;81.00
81833;BME280;71270;52.148;4.500;2023-10-13T08:45:31;100424.94;;;18.25;81.23
81833;BME280;71270;52.148;4.500;2023-10-13T08:47:59;100431.44;;;18.29;80.71
81833;BME280;71270;52.148;4.500;2023-10-13T08:50:48;100430.88;;;18.27;80.88
81833;BME280;71270;52.148;4.500;2023-10-13T08:53:24;100426.03;;;18.29;81.37
81833;BME280;71270;52.148;4.500;2023-10-13T08:56:21;100401.94;;;18.33;79.40
81833;BME280;71270;52.148;4.500;2023-10-13T08:59:00;100425.78;;;18.41;80.65
81833;BME280;71270;52.148;4.500;2023-10-13T09:01:29;100419.00;;;18.44;79.13
81833;BME280;71270;52.148;4.500;2023-10-13T09:04:16;100393.00;;;18.53;78.61
81833;BME280;71270;52.148;4.500;2023-10-13T09:06:54;100410.91;;;18.59;78.66
81833;BME280;71270;52.148;4.500;2023-10-13T09:12:20;100410.13;;;18.74;77.38
81833;BME280;71270;52.148;4.500;2023-10-13T09:14:55;100400.38;;;18.78;76.36
81833;BME280;71270;52.148;4.500;2023-10-13T09:17:28;100408.22;;;18.79;76.11
81833;BME280;71270;52.148;4.500;2023-10-13T09:20:05;100402.25;;;18.88;76.59
81833;BME280;71270;52.148;4.500;2023-10-13T09:22:55;100402.25;;;18.93;77.31
81833;BME280;71270;52.148;4.500;2023-10-13T09:25:33;100386.78;;;18.98;77.00
81833;BME280;71270;52.148;4.500;2023-10-13T09:28:01;100381.38;;;18.98;75.46
81833;BME280;71270;52.148;4.500;2023-10-13T09:30:27;100381.63;;;19.02;76.46
81833;BME280;71270;52.148;4.500;2023-10-13T09:33:03;100378.13;;;19.06;75.65
81833;BME280;71270;52.148;4.500;2023-10-13T09:35:34;100371.03;;;19.05;75.56
81833;BME280;71270;52.148;4.500;2023-10-13T09:38:02;100384.34;;;19.17;74.71
81833;BME280;71270;52.148;4.500;2023-10-13T09:40:28;100365.63;;;19.21;75.04
81833;BME280;71270;52.148;4.500;2023-10-13T09:43:18;100364.50;;;19.32;74.98
81833;BME280;71270;52.148;4.500;2023-10-13T09:45:46;100363.91;;;19.40;74.63
81833;BME280;71270;52.148;4.500;2023-10-13T09:48:37;100357.34;;;19.51;73.49
81833;BME280;71270;52.148;4.500;2023-10-13T09:51:11;100369.00;;;19.62;73.32
81833;BME280;71270;52.148;4.500;2023-10-13T09:53:38;100365.75;;;19.70;73.39
81833;BME280;71270;52.148;4.500;2023-10-13T09:56:18;100370.31;;;19.75;71.91
81833;BME280;71270;52.148;4.500;2023-10-13T09:59:08;100343.13;;;19.85;72.41
81833;BME280;71270;52.148;4.500;2023-10-13T10:01:40;100350.72;;;19.88;70.64
81833;BME280;71270;52.148;4.500;2023-10-13T10:04:16;100350.13;;;19.96;71.95
81833;BME280;71270;52.148;4.500;2023-10-13T10:06:54;100341.84;;;20.17;69.91
81833;BME280;71270;52.148;4.500;2023-10-13T10:09:32;100352.16;;;20.20;70.54
81833;BME280;71270;52.148;4.500;2023-10-13T10:15:03;100337.91;;;21.02;66.95
81833;BME280;71270;52.148;4.500;2023-10-13T10:17:38;100333.97;;;21.42;66.36
81833;BME280;71270;52.148;4.500;2023-10-13T10:20:05;100333.25;;;21.55;66.52
81833;BME280;71270;52.148;4.500;2023-10-13T10:22:40;100335.91;;;21.60;64.50
81833;BME280;71270;52.148;4.500;2023-10-13T10:25:13;100339.22;;;22.19;63.56
81833;BME280;71270;52.148;4.500;2023-10-13T10:27:57;100335.09;;;21.60;63.19
81833;BME280;71270;52.148;4.500;2023-10-13T10:30:29;100329.31;;;21.42;65.94
81833;BME280;71270;52.148;4.500;2023-10-13T10:32:55;100314.81;;;21.23;66.49
81833;BME280;71270;52.148;4.500;2023-10-13T10:35:33;100328.25;;;21.14;67.06
81833;BME280;71270;52.148;4.500;2023-10-13T10:38:18;100303.63;;;21.01;65.86
81833;BME280;71270;52.148;4.500;2023-10-13T10:41:02;100338.63;;;20.83;65.96
81833;BME280;71270;52.148;4.500;2023-10-13T10:43:39;100277.31;;;20.67;66.84
81833;BME280;71270;52.148;4.500;2023-10-13T10:46:26;100306.09;;;20.73;65.81
81833;BME280;71270;52.148;4.500;2023-10-13T10:48:52;100289.94;;;20.58;65.65
81833;BME280;71270;52.148;4.500;2023-10-13T10:51:22;100313.50;;;20.67;66.16
81833;BME280;71270;52.148;4.500;2023-10-13T10:53:51;100308.41;;;20.61;66.14
81833;BME280;71270;52.148;4.500;2023-10-13T10:56:21;100298.03;;;20.63;66.48
81833;BME280;71270;52.148;4.500;2023-10-13T10:58:55;100297.84;;;20.54;66.48
81833;BME280;71270;52.148;4.500;2023-10-13T11:01:23;100284.81;;;20.46;66.64
81833;BME280;71270;52.148;4.500;2023-10-13T11:03:59;100288.59;;;20.55;67.93
81833;BME280;71270;52.148;4.500;2023-10-13T11:06:28;100274.53;;;20.43;66.36
81833;BME280;71270;52.148;4.500;2023-10-13T11:09:06;100279.19;;;20.37;67.08
81833;BME280;71270;52.148;4.500;2023-10-13T11:14:31;100262.41;;;20.30;67.50
81833;BME280;71270;52.148;4.500;2023-10-13T11:16:57;100296.63;;;20.36;67.26
81833;BME280;71270;52.148;4.500;2023-10-13T11:19:39;100253.06;;;20.41;66.67
81833;BME280;71270;52.148;4.500;2023-10-13T11:22:10;100263.94;;;20.41;67.66
81833;BME280;71270;52.148;4.500;2023-10-13T11:24:42;100273.72;;;20.42;68.49
81833;BME280;71270;52.148;4.500;2023-10-13T11:27:17;100269.13;;;20.38;66.92
81833;BME280;71270;52.148;4.500;2023-10-13T11:29:46;100274.31;;;20.39;66.66
81833;BME280;71270;52.148;4.500;2023-10-13T11:32:17;100269.91;;;20.43;66.80
81833;BME280;71270;52.148;4.500;2023-10-13T11:34:45;100269.63;;;20.45;66.61
81833;BME280;71270;52.148;4.500;2023-10-13T11:37:10;100262.50;;;20.49;66.62
81833;BME280;71270;52.148;4.500;2023-10-13T11:40:02;100277.78;;;20.50;65.76
81833;BME280;71270;52.148;4.500;2023-10-13T11:42:34;100264.69;;;20.52;65.36
81833;BME280;71270;52.148;4.500;2023-10-13T11:45:01;100261.94;;;20.57;66.11
81833;BME280;71270;52.148;4.500;2023-10-13T11:47:46;100256.50;;;20.57;65.40
81833;BME280;71270;52.148;4.500;2023-10-13T11:50:25;100247.75;;;20.60;64.13
81833;BME280;71270;52.148;4.500;2023-10-13T11:53:00;100258.06;;;20.63;65.00
81833;BME280;71270;52.148;4.500;2023-10-13T11:55:25;100275.72;;;20.66;65.05
81833;BME280;71270;52.148;4.500;2023-10-13T11:57:51;100281.22;;;20.61;66.15
81833;BME280;71270;52.148;4.500;2023-10-13T12:00:17;100266.50;;;20.62;65.02
81833;BME280;71270;52.148;4.500;2023-10-13T12:03:11;100281.78;;;20.58;66.23
81833;BME280;71270;52.148;4.500;2023-10-13T12:05:55;100267.06;;;20.59;67.53
81833;BME280;71270;52.148;4.500;2023-10-13T12:08:39;100265.81;;;20.51;66.14
81833;BME280;71270;52.148;4.500;2023-10-13T12:11:14;100264.19;;;20.50;67.20
81833;BME280;71270;52.148;4.500;2023-10-13T12:13:58;100251.94;;;20.47;66.82
81833;BME280;71270;52.148;4.500;2023-10-13T12:16:23;100257.41;;;20.42;67.01
81833;BME280;71270;52.148;4.500;2023-10-13T12:18:59;100241.34;;;20.46;67.12
81833;BME280;71270;52.148;4.500;2023-10-13T12:21:26;100247.63;;;20.41;67.07
81833;BME280;71270;52.148;4.500;2023-10-13T12:23:52;100260.72;;;20.39;67.08
81833;BME280;71270;52.148;4.500;2023-10-13T12:26:19;100243.81;;;20.42;67.43
81833;BME280;71270;52.148;4.500;2023-10-13T12:28:45;100263.44;;;20.39;67.97
81833;BME280;71270;52.148;4.500;2023-10-13T12:31:17;100247.69;;;20.36;65.20
81833;BME280;71270;52.148;4.500;2023-10-13T12:33:43;100248.84;;;20.30;68.25
81833;BME280;71270;52.148;4.500;2023-10-13T12:36:12;100243.97;;;20.27;68.43
81833;BME280;71270;52.148;4.500;2023-10-13T12:38:47;100231.31;;;20.12;68.28
81833;BME280;71270;52.148;4.500;2023-10-13T12:41:16;100243.28;;;20.11;69.25
81833;BME280;71270;52.148;4.500;2023-10-13T12:44:00;100270.16;;;20.13;69.51
81833;BME280;71270;52.148;4.500;2023-10-13T12:46:44;100257.16;;;20.10;69.91
81833;BME280;71270;52.148;4.500;2023-10-13T12:49:28;100237.69;;;19.97;69.05
81833;BME280;71270;52.148;4.500;2023-10-13T12:52:12;100231.66;;;20.06;71.70
81833;BME280;71270;52.148;4.500;2023-10-13T12:54:43;100237.88;;;20.06;72.67
81833;BME280;71270;52.148;4.500;2023-10-13T12:57:21;100219.81;;;19.91;72.67
81833;BME280;71270;52.148;4.500;2023-10-13T12:59:48;100181.31;;;19.84;72.76
81833;BME280;71270;52.148;4.500;2023-10-13T13:02:14;100228.84;;;19.82;71.40
81833;BME280;71270;52.148;4.500;2023-10-13T13:04:42;100236.72;;;19.78;71.14
81833;BME280;71270;52.148;4.500;2023-10-13T13:07:10;100234.25;;;19.82;72.43
81833;BME280;71270;52.148;4.500;2023-10-13T13:09:41;100244.28;;;19.86;72.32
81833;BME280;71270;52.148;4.500;2023-10-13T13:12:07;100252.16;;;19.88;72.46
81833;BME280;71270;52.148;4.500;2023-10-13T13:14:32;100235.06;;;19.82;71.16
81833;BME280;71270;52.148;4.500;2023-10-13T13:17:00;100221.50;;;19.82;71.79
81833;BME280;71270;52.148;4.500;2023-10-13T13:19:32;100245.38;;;19.85;71.69
81833;BME280;71270;52.148;4.500;2023-10-13T13:22:02;100235.28;;;19.91;71.07
81833;BME280;71270;52.148;4.500;2023-10-13T13:24:28;100212.53;;;19.82;71.63
81833;BME280;71270;52.148;4.500;2023-10-13T13:26:56;100218.44;;;19.94;71.19
81833;BME280;71270;52.148;4.500;2023-10-13T13:29:21;100232.81;;;19.94;71.03
81833;BME280;71270;52.148;4.500;2023-10-13T13:31:46;100233.81;;;20.03;71.16